sensor_id;sensor_type;location;lat;lon;timestamp;temperature;humidity
5138;DHT22;53959;53.626;11.410;2023-01-23T00:01:50;2.50;99.90
5138;DHT22;53959;53.626;11.410;2023-01-23T00:04:15;2.40;99.90
5138;DHT22;53959;53.626;11.410;2023-01-23T00:06:41;2.30;99.90
5138;DHT22;53959;53.626;11.410;2023-01-23T00:09:07;2.30;99.90
5138;DHT22;53959;53.626;11.410;2023-01-23T00:11:33;2.30;99.90
5138;DHT22;53959;53.626;11.410;2023-01-23T00:14:00;2.30;99.90
5138;DHT22;53959;53.626;11.410;2023-01-23T00:16:28;2.30;99.90
5138;DHT22;53959;53.626;11.410;2023-01-23T00:18:54;2.30;99.90
5138;DHT22;53959;53.626;11.410;2023-01-23T00:21:22;2.20;99.90
5138;DHT22;53959;53.626;11.410;2023-01-23T00:23:50;2.30;99.90
5138;DHT22;53959;53.626;11.410;2023-01-23T00:26:20;2.30;99.90
5138;DHT22;53959;53.626;11.410;2023-01-23T00:28:46;2.30;99.90
5138;DHT22;53959;53.626;11.410;2023-01-23T00:31:17;2.30;99.90
5138;DHT22;53959;53.626;11.410;2023-01-23T00:33:43;2.40;99.90
5138;DHT22;53959;53.626;11.410;2023-01-23T00:36:10;2.30;99.90
5138;DHT22;53959;53.626;11.410;2023-01-23T00:38:35;2.40;99.90
5138;DHT22;53959;53.626;11.410;2023-01-23T00:41:02;2.30;99.90
5138;DHT22;53959;53.626;11.410;2023-01-23T00:43:29;2.30;99.90
5138;DHT22;53959;53.626;11.410;2023-01-23T00:45:55;2.40;99.90
5138;DHT22;53959;53.626;11.410;2023-01-23T00:48:20;2.30;99.90
5138;DHT22;53959;53.626;11.410;2023-01-23T00:50:46;2.30;99.90
5138;DHT22;53959;53.626;11.410;2023-01-23T00:53:12;2.30;99.90
5138;DHT22;53959;53.626;11.410;2023-01-23T00:55:38;2.30;99.90
5138;DHT22;53959;53.626;11.410;2023-01-23T00:58:04;2.40;99.90
5138;DHT22;53959;53.626;11.410;2023-01-23T01:00:29;2.40;99.90
5138;DHT22;53959;53.626;11.410;2023-01-23T01:02:55;2.40;99.90
5138;DHT22;53959;53.626;11.410;2023-01-23T01:05:20;2.40;99.90
5138;DHT22;53959;53.626;11.410;2023-01-23T01:07:46;2.40;99.90
5138;DHT22;53959;53.626;11.410;2023-01-23T01:10:12;2.30;99.90
5138;DHT22;53959;53.626;11.410;2023-01-23T01:12:38;2.30;99.90
5138;DHT22;53959;53.626;11.410;2023-01-23T01:15:04;2.30;99.90
5138;DHT22;53959;53.626;11.410;2023-01-23T01:17:30;2.40;99.90
5138;DHT22;53959;53.626;11.410;2023-01-23T01:19:56;2.40;99.90
5138;DHT22;53959;53.626;11.410;2023-01-23T01:22:21;2.40;99.90
5138;DHT22;53959;53.626;11.410;2023-01-23T01:24:47;2.30;99.90
5138;DHT22;53959;53.626;11.410;2023-01-23T01:27:12;2.30;99.90
5138;DHT22;53959;53.626;11.410;2023-01-23T01:29:38;2.30;99.90
5138;DHT22;53959;53.626;11.410;2023-01-23T01:32:04;2.30;99.90
5138;DHT22;53959;53.626;11.410;2023-01-23T01:34:29;2.30;99.90
5138;DHT22;53959;53.626;11.410;2023-01-23T01:36:55;2.30;99.90
5138;DHT22;53959;53.626;11.410;2023-01-23T01:39:21;2.40;99.90
5138;DHT22;53959;53.626;11.410;2023-01-23T01:41:46;2.30;99.90
5138;DHT22;53959;53.626;11.410;2023-01-23T01:44:17;2.40;99.90
5138;DHT22;53959;53.626;11.410;2023-01-23T01:46:43;2.40;99.90
5138;DHT22;53959;53.626;11.410;2023-01-23T01:49:36;2.30;99.90
5138;DHT22;53959;53.626;11.410;2023-01-23T01:52:10;2.30;99.90
5138;DHT22;53959;53.626;11.410;2023-01-23T01:54:58;2.30;99.90
5138;DHT22;53959;53.626;11.410;2023-01-23T01:57:30;2.30;99.90
5138;DHT22;53959;53.626;11.410;2023-01-23T02:00:06;2.40;99.90
5138;DHT22;53959;53.626;11.410;2023-01-23T02:02:39;2.30;99.90
5138;DHT22;53959;53.626;11.410;2023-01-23T02:05:14;2.20;99.90
5138;DHT22;53959;53.626;11.410;2023-01-23T02:10:20;2.20;99.90
5138;DHT22;53959;53.626;11.410;2023-01-23T02:12:47;2.20;99.90
5138;DHT22;53959;53.626;11.410;2023-01-23T02:15:14;2.20;99.90
5138;DHT22;53959;53.626;11.410;2023-01-23T02:17:41;2.20;99.90
5138;DHT22;53959;53.626;11.410;2023-01-23T02:20:21;2.20;99.90
5138;DHT22;53959;53.626;11.410;2023-01-23T02:23:19;2.20;99.90
5138;DHT22;53959;53.626;11.410;2023-01-23T02:26:06;2.20;99.90
5138;DHT22;53959;53.626;11.410;2023-01-23T02:28:39;2.20;99.90
5138;DHT22;53959;53.626;11.410;2023-01-23T02:31:06;2.20;99.90
5138;DHT22;53959;53.626;11.410;2023-01-23T02:35:58;2.20;99.90
5138;DHT22;53959;53.626;11.410;2023-01-23T02:38:26;2.20;99.90
5138;DHT22;53959;53.626;11.410;2023-01-23T02:40:54;2.20;99.90
5138;DHT22;53959;53.626;11.410;2023-01-23T02:43:24;2.20;99.90
5138;DHT22;53959;53.626;11.410;2023-01-23T02:45:53;2.30;99.90
5138;DHT22;53959;53.626;11.410;2023-01-23T02:48:19;2.30;99.90
5138;DHT22;53959;53.626;11.410;2023-01-23T02:50:45;2.30;99.90
5138;DHT22;53959;53.626;11.410;2023-01-23T02:53:12;2.30;99.90
5138;DHT22;53959;53.626;11.410;2023-01-23T02:55:37;2.20;99.90
5138;DHT22;53959;53.626;11.410;2023-01-23T02:58:07;2.20;99.90
5138;DHT22;53959;53.626;11.410;2023-01-23T03:00:51;2.20;99.90
5138;DHT22;53959;53.626;11.410;2023-01-23T03:03:17;2.20;99.90
5138;DHT22;53959;53.626;11.410;2023-01-23T03:05:44;2.20;99.90
5138;DHT22;53959;53.626;11.410;2023-01-23T03:08:10;2.30;99.90
5138;DHT22;53959;53.626;11.410;2023-01-23T03:10:36;2.30;99.90
5138;DHT22;53959;53.626;11.410;2023-01-23T03:13:02;2.20;99.90
5138;DHT22;53959;53.626;11.410;2023-01-23T03:15:29;2.30;99.90
5138;DHT22;53959;53.626;11.410;2023-01-23T03:17:57;2.20;99.90
5138;DHT22;53959;53.626;11.410;2023-01-23T03:20:23;2.20;99.90
5138;DHT22;53959;53.626;11.410;2023-01-23T03:22:49;2.10;99.90
5138;DHT22;53959;53.626;11.410;2023-01-23T03:25:15;2.10;99.90
5138;DHT22;53959;53.626;11.410;2023-01-23T03:27:41;2.10;99.90
5138;DHT22;53959;53.626;11.410;2023-01-23T03:30:08;2.10;99.90
5138;DHT22;53959;53.626;11.410;2023-01-23T03:32:38;2.00;99.90
5138;DHT22;53959;53.626;11.410;2023-01-23T03:35:05;2.10;99.90
5138;DHT22;53959;53.626;11.410;2023-01-23T03:37:31;2.10;99.90
5138;DHT22;53959;53.626;11.410;2023-01-23T03:39:56;2.10;99.90
5138;DHT22;53959;53.626;11.410;2023-01-23T03:42:40;2.10;99.90
5138;DHT22;53959;53.626;11.410;2023-01-23T03:45:07;2.10;99.90
5138;DHT22;53959;53.626;11.410;2023-01-23T03:47:32;2.00;99.90
5138;DHT22;53959;53.626;11.410;2023-01-23T03:49:58;2.10;99.90
5138;DHT22;53959;53.626;11.410;2023-01-23T03:52:23;2.00;99.90
5138;DHT22;53959;53.626;11.410;2023-01-23T03:54:49;2.10;99.90
5138;DHT22;53959;53.626;11.410;2023-01-23T03:57:15;2.10;99.90
5138;DHT22;53959;53.626;11.410;2023-01-23T03:59:40;2.10;99.90
5138;DHT22;53959;53.626;11.410;2023-01-23T04:02:06;2.10;99.90
5138;DHT22;53959;53.626;11.410;2023-01-23T04:04:32;2.10;99.90
5138;DHT22;53959;53.626;11.410;2023-01-23T04:06:58;2.10;99.90
5138;DHT22;53959;53.626;11.410;2023-01-23T04:09:24;2.20;99.90
5138;DHT22;53959;53.626;11.410;2023-01-23T04:11:53;2.10;99.90
5138;DHT22;53959;53.626;11.410;2023-01-23T04:14:19;2.10;99.90
5138;DHT22;53959;53.626;11.410;2023-01-23T04:16:45;2.10;99.90
5138;DHT22;53959;53.626;11.410;2023-01-23T04:19:10;2.10;99.90
5138;DHT22;53959;53.626;11.410;2023-01-23T04:21:36;2.10;99.90
5138;DHT22;53959;53.626;11.410;2023-01-23T04:24:02;2.10;99.90
5138;DHT22;53959;53.626;11.410;2023-01-23T04:26:27;2.10;99.90
5138;DHT22;53959;53.626;11.410;2023-01-23T04:28:53;2.10;99.90
5138;DHT22;53959;53.626;11.410;2023-01-23T04:31:18;2.10;99.90
5138;DHT22;53959;53.626;11.410;2023-01-23T04:33:44;2.10;99.90
5138;DHT22;53959;53.626;11.410;2023-01-23T04:36:10;2.10;99.90
5138;DHT22;53959;53.626;11.410;2023-01-23T04:38:36;2.10;99.90
5138;DHT22;53959;53.626;11.410;2023-01-23T04:41:02;2.10;99.90
5138;DHT22;53959;53.626;11.410;2023-01-23T04:43:28;2.10;99.90
5138;DHT22;53959;53.626;11.410;2023-01-23T04:45:55;2.00;99.90
5138;DHT22;53959;53.626;11.410;2023-01-23T04:48:21;2.00;99.90
5138;DHT22;53959;53.626;11.410;2023-01-23T04:50:48;2.00;99.90
5138;DHT22;53959;53.626;11.410;2023-01-23T04:53:14;2.10;99.90
5138;DHT22;53959;53.626;11.410;2023-01-23T04:55:40;2.00;99.90
5138;DHT22;53959;53.626;11.410;2023-01-23T04:58:05;2.00;99.90
5138;DHT22;53959;53.626;11.410;2023-01-23T05:00:31;2.10;99.90
5138;DHT22;53959;53.626;11.410;2023-01-23T05:02:56;2.10;99.90
5138;DHT22;53959;53.626;11.410;2023-01-23T05:05:24;2.10;99.90
5138;DHT22;53959;53.626;11.410;2023-01-23T05:07:50;2.00;99.90
5138;DHT22;53959;53.626;11.410;2023-01-23T05:10:16;2.10;99.90
5138;DHT22;53959;53.626;11.410;2023-01-23T05:12:42;2.10;99.90
5138;DHT22;53959;53.626;11.410;2023-01-23T05:15:09;2.00;99.90
5138;DHT22;53959;53.626;11.410;2023-01-23T05:17:34;2.00;99.90
5138;DHT22;53959;53.626;11.410;2023-01-23T05:20:00;2.10;99.90
5138;DHT22;53959;53.626;11.410;2023-01-23T05:22:26;2.00;99.90
5138;DHT22;53959;53.626;11.410;2023-01-23T05:24:51;2.00;99.90
5138;DHT22;53959;53.626;11.410;2023-01-23T05:27:17;2.00;99.90
5138;DHT22;53959;53.626;11.410;2023-01-23T05:29:42;2.00;99.90
5138;DHT22;53959;53.626;11.410;2023-01-23T05:32:08;2.10;99.90
5138;DHT22;53959;53.626;11.410;2023-01-23T05:34:33;2.10;99.90
5138;DHT22;53959;53.626;11.410;2023-01-23T05:36:59;2.00;99.90
5138;DHT22;53959;53.626;11.410;2023-01-23T05:39:25;2.00;99.90
5138;DHT22;53959;53.626;11.410;2023-01-23T05:41:50;2.00;99.90
5138;DHT22;53959;53.626;11.410;2023-01-23T05:44:16;2.10;99.90
5138;DHT22;53959;53.626;11.410;2023-01-23T05:46:41;2.10;99.90
5138;DHT22;53959;53.626;11.410;2023-01-23T05:49:07;2.10;99.90
5138;DHT22;53959;53.626;11.410;2023-01-23T05:51:32;2.10;99.90
5138;DHT22;53959;53.626;11.410;2023-01-23T05:54:02;2.10;99.90
5138;DHT22;53959;53.626;11.410;2023-01-23T05:56:27;2.20;99.90
5138;DHT22;53959;53.626;11.410;2023-01-23T05:58:53;2.10;99.90
5138;DHT22;53959;53.626;11.410;2023-01-23T06:01:19;2.10;99.90
5138;DHT22;53959;53.626;11.410;2023-01-23T06:03:45;2.10;99.90
5138;DHT22;53959;53.626;11.410;2023-01-23T06:06:11;2.10;99.90
5138;DHT22;53959;53.626;11.410;2023-01-23T06:08:37;2.20;99.90
5138;DHT22;53959;53.626;11.410;2023-01-23T06:11:02;2.00;99.90
5138;DHT22;53959;53.626;11.410;2023-01-23T06:13:29;2.10;99.90
5138;DHT22;53959;53.626;11.410;2023-01-23T06:15:55;2.10;99.90
5138;DHT22;53959;53.626;11.410;2023-01-23T06:18:23;2.10;99.90
5138;DHT22;53959;53.626;11.410;2023-01-23T06:20:48;2.20;99.90
5138;DHT22;53959;53.626;11.410;2023-01-23T06:23:14;2.20;99.90
5138;DHT22;53959;53.626;11.410;2023-01-23T06:25:41;2.30;99.90
5138;DHT22;53959;53.626;11.410;2023-01-23T06:28:07;2.30;99.90
5138;DHT22;53959;53.626;11.410;2023-01-23T06:30:32;2.20;99.90
5138;DHT22;53959;53.626;11.410;2023-01-23T06:32:58;2.10;99.90
5138;DHT22;53959;53.626;11.410;2023-01-23T06:35:24;2.20;99.90
5138;DHT22;53959;53.626;11.410;2023-01-23T06:37:49;2.20;99.90
5138;DHT22;53959;53.626;11.410;2023-01-23T06:40:15;2.30;99.90
5138;DHT22;53959;53.626;11.410;2023-01-23T06:42:41;2.20;99.90
5138;DHT22;53959;53.626;11.410;2023-01-23T06:45:08;2.20;99.90
5138;DHT22;53959;53.626;11.410;2023-01-23T06:47:35;2.20;99.90
5138;DHT22;53959;53.626;11.410;2023-01-23T06:50:00;2.10;99.90
5138;DHT22;53959;53.626;11.410;2023-01-23T06:52:27;2.10;99.90
5138;DHT22;53959;53.626;11.410;2023-01-23T06:54:53;2.10;99.90
5138;DHT22;53959;53.626;11.410;2023-01-23T06:57:18;2.10;99.90
5138;DHT22;53959;53.626;11.410;2023-01-23T06:59:44;2.20;99.90
5138;DHT22;53959;53.626;11.410;2023-01-23T07:02:10;2.20;99.90
5138;DHT22;53959;53.626;11.410;2023-01-23T07:04:37;2.20;99.90
5138;DHT22;53959;53.626;11.410;2023-01-23T07:07:03;2.20;99.90
5138;DHT22;53959;53.626;11.410;2023-01-23T07:09:28;2.10;99.90
5138;DHT22;53959;53.626;11.410;2023-01-23T07:11:54;2.10;99.90
5138;DHT22;53959;53.626;11.410;2023-01-23T07:14:20;2.10;99.90
5138;DHT22;53959;53.626;11.410;2023-01-23T07:16:45;2.10;99.90
5138;DHT22;53959;53.626;11.410;2023-01-23T07:19:11;2.10;99.90
5138;DHT22;53959;53.626;11.410;2023-01-23T07:21:36;2.20;99.90
5138;DHT22;53959;53.626;11.410;2023-01-23T07:24:02;2.20;99.90
5138;DHT22;53959;53.626;11.410;2023-01-23T07:26:28;2.20;99.90
5138;DHT22;53959;53.626;11.410;2023-01-23T07:28:53;2.20;99.90
5138;DHT22;53959;53.626;11.410;2023-01-23T07:31:19;2.20;99.90
5138;DHT22;53959;53.626;11.410;2023-01-23T07:33:44;2.10;99.90
5138;DHT22;53959;53.626;11.410;2023-01-23T07:36:10;2.20;99.90
5138;DHT22;53959;53.626;11.410;2023-01-23T07:38:38;2.20;99.90
5138;DHT22;53959;53.626;11.410;2023-01-23T07:41:04;2.20;99.90
5138;DHT22;53959;53.626;11.410;2023-01-23T07:43:29;2.30;99.90
5138;DHT22;53959;53.626;11.410;2023-01-23T07:45:58;2.30;99.90
5138;DHT22;53959;53.626;11.410;2023-01-23T07:48:24;2.30;99.90
5138;DHT22;53959;53.626;11.410;2023-01-23T07:50:49;2.30;99.90
5138;DHT22;53959;53.626;11.410;2023-01-23T07:53:15;2.20;99.90
5138;DHT22;53959;53.626;11.410;2023-01-23T07:55:40;2.20;99.90
5138;DHT22;53959;53.626;11.410;2023-01-23T07:58:06;2.20;99.90
5138;DHT22;53959;53.626;11.410;2023-01-23T08:00:31;2.20;99.90
5138;DHT22;53959;53.626;11.410;2023-01-23T08:02:57;2.20;99.90
5138;DHT22;53959;53.626;11.410;2023-01-23T08:05:23;2.30;99.90
5138;DHT22;53959;53.626;11.410;2023-01-23T08:07:48;2.20;99.90
5138;DHT22;53959;53.626;11.410;2023-01-23T08:10:14;2.30;99.90
5138;DHT22;53959;53.626;11.410;2023-01-23T08:12:39;2.30;99.90
5138;DHT22;53959;53.626;11.410;2023-01-23T08:15:05;2.10;99.90
5138;DHT22;53959;53.626;11.410;2023-01-23T08:17:31;2.20;99.90
5138;DHT22;53959;53.626;11.410;2023-01-23T08:19:57;2.10;99.90
5138;DHT22;53959;53.626;11.410;2023-01-23T08:22:22;2.20;99.90
5138;DHT22;53959;53.626;11.410;2023-01-23T08:24:48;2.20;99.90
5138;DHT22;53959;53.626;11.410;2023-01-23T08:27:13;2.20;99.90
5138;DHT22;53959;53.626;11.410;2023-01-23T08:29:39;2.10;99.90
5138;DHT22;53959;53.626;11.410;2023-01-23T08:32:04;2.10;99.90
5138;DHT22;53959;53.626;11.410;2023-01-23T08:34:30;2.20;99.90
5138;DHT22;53959;53.626;11.410;2023-01-23T08:36:56;2.20;99.90
5138;DHT22;53959;53.626;11.410;2023-01-23T08:39:22;2.10;99.90
5138;DHT22;53959;53.626;11.410;2023-01-23T08:41:49;2.10;99.90
5138;DHT22;53959;53.626;11.410;2023-01-23T08:44:14;2.20;99.90
5138;DHT22;53959;53.626;11.410;2023-01-23T08:46:40;2.20;99.90
5138;DHT22;53959;53.626;11.410;2023-01-23T08:49:07;2.10;99.90
5138;DHT22;53959;53.626;11.410;2023-01-23T08:51:32;2.20;99.90
5138;DHT22;53959;53.626;11.410;2023-01-23T08:53:58;2.20;99.90
5138;DHT22;53959;53.626;11.410;2023-01-23T08:56:24;2.20;99.90
5138;DHT22;53959;53.626;11.410;2023-01-23T08:58:50;2.30;99.90
5138;DHT22;53959;53.626;11.410;2023-01-23T09:01:21;2.30;99.90
5138;DHT22;53959;53.626;11.410;2023-01-23T09:03:47;2.30;99.90
5138;DHT22;53959;53.626;11.410;2023-01-23T09:06:14;2.30;99.90
5138;DHT22;53959;53.626;11.410;2023-01-23T09:08:40;2.30;99.90
5138;DHT22;53959;53.626;11.410;2023-01-23T09:11:08;2.40;99.90
5138;DHT22;53959;53.626;11.410;2023-01-23T09:13:34;2.30;99.90
5138;DHT22;53959;53.626;11.410;2023-01-23T09:16:00;2.30;99.90
5138;DHT22;53959;53.626;11.410;2023-01-23T09:18:25;2.30;99.90
5138;DHT22;53959;53.626;11.410;2023-01-23T09:20:52;2.30;99.90
5138;DHT22;53959;53.626;11.410;2023-01-23T09:23:18;2.30;99.90
5138;DHT22;53959;53.626;11.410;2023-01-23T09:25:44;2.30;99.90
5138;DHT22;53959;53.626;11.410;2023-01-23T09:28:10;2.40;99.90
5138;DHT22;53959;53.626;11.410;2023-01-23T09:30:36;2.40;99.90
5138;DHT22;53959;53.626;11.410;2023-01-23T09:33:02;2.30;99.90
5138;DHT22;53959;53.626;11.410;2023-01-23T09:35:28;2.20;99.90
5138;DHT22;53959;53.626;11.410;2023-01-23T09:37:53;2.30;99.90
5138;DHT22;53959;53.626;11.410;2023-01-23T09:40:36;2.30;99.90
5138;DHT22;53959;53.626;11.410;2023-01-23T09:43:15;2.30;99.90
5138;DHT22;53959;53.626;11.410;2023-01-23T09:45:56;2.30;99.90
5138;DHT22;53959;53.626;11.410;2023-01-23T09:48:44;2.30;99.90
5138;DHT22;53959;53.626;11.410;2023-01-23T09:51:40;2.40;99.90
5138;DHT22;53959;53.626;11.410;2023-01-23T09:54:28;2.50;99.90
5138;DHT22;53959;53.626;11.410;2023-01-23T09:56:56;2.50;99.90
5138;DHT22;53959;53.626;11.410;2023-01-23T09:59:32;2.40;99.90
5138;DHT22;53959;53.626;11.410;2023-01-23T10:01:59;2.40;99.90
5138;DHT22;53959;53.626;11.410;2023-01-23T10:04:25;2.40;99.90
5138;DHT22;53959;53.626;11.410;2023-01-23T10:18:32;2.40;99.90
5138;DHT22;53959;53.626;11.410;2023-01-23T10:24:26;2.30;99.90
5138;DHT22;53959;53.626;11.410;2023-01-23T10:26:42;2.30;99.90
5138;DHT22;53959;53.626;11.410;2023-01-23T10:31:49;2.40;99.90
5138;DHT22;53959;53.626;11.410;2023-01-23T10:34:22;2.40;99.90
5138;DHT22;53959;53.626;11.410;2023-01-23T10:37:01;2.30;99.90
5138;DHT22;53959;53.626;11.410;2023-01-23T10:39:53;2.40;99.90
5138;DHT22;53959;53.626;11.410;2023-01-23T10:42:22;2.40;99.90
5138;DHT22;53959;53.626;11.410;2023-01-23T10:44:49;2.40;99.90
5138;DHT22;53959;53.626;11.410;2023-01-23T10:47:42;2.60;99.90
5138;DHT22;53959;53.626;11.410;2023-01-23T10:50:09;2.50;99.90
5138;DHT22;53959;53.626;11.410;2023-01-23T10:57:47;2.50;99.90
5138;DHT22;53959;53.626;11.410;2023-01-23T11:00:20;2.50;99.90
5138;DHT22;53959;53.626;11.410;2023-01-23T11:02:47;2.50;99.90
5138;DHT22;53959;53.626;11.410;2023-01-23T11:05:41;2.60;99.90
5138;DHT22;53959;53.626;11.410;2023-01-23T11:08:39;2.60;99.90
5138;DHT22;53959;53.626;11.410;2023-01-23T11:13:39;2.70;99.90
5138;DHT22;53959;53.626;11.410;2023-01-23T11:16:05;2.60;99.90
5138;DHT22;53959;53.626;11.410;2023-01-23T11:18:33;2.70;99.90
5138;DHT22;53959;53.626;11.410;2023-01-23T11:21:00;2.70;99.90
5138;DHT22;53959;53.626;11.410;2023-01-23T11:23:26;2.60;99.90
5138;DHT22;53959;53.626;11.410;2023-01-23T11:25:54;2.70;99.90
5138;DHT22;53959;53.626;11.410;2023-01-23T11:33:32;2.80;99.90
5138;DHT22;53959;53.626;11.410;2023-01-23T11:39:27;2.90;99.90
5138;DHT22;53959;53.626;11.410;2023-01-23T11:41:58;2.90;99.90
5138;DHT22;53959;53.626;11.410;2023-01-23T11:44:24;3.00;99.90
5138;DHT22;53959;53.626;11.410;2023-01-23T11:47:02;2.90;99.90
5138;DHT22;53959;53.626;11.410;2023-01-23T11:55:40;3.00;99.90
5138;DHT22;53959;53.626;11.410;2023-01-23T11:58:17;3.00;99.90
5138;DHT22;53959;53.626;11.410;2023-01-23T12:06:27;3.00;99.90
5138;DHT22;53959;53.626;11.410;2023-01-23T12:09:15;2.90;99.90
5138;DHT22;53959;53.626;11.410;2023-01-23T12:17:24;2.90;99.90
5138;DHT22;53959;53.626;11.410;2023-01-23T12:22:49;3.00;99.90
5138;DHT22;53959;53.626;11.410;2023-01-23T12:25:35;2.90;99.90
5138;DHT22;53959;53.626;11.410;2023-01-23T12:28:18;3.00;99.90
5138;DHT22;53959;53.626;11.410;2023-01-23T12:33:35;2.90;99.90
5138;DHT22;53959;53.626;11.410;2023-01-23T12:39:04;2.90;99.90
5138;DHT22;53959;53.626;11.410;2023-01-23T12:41:33;3.00;99.90
5138;DHT22;53959;53.626;11.410;2023-01-23T12:46:43;3.00;99.90
5138;DHT22;53959;53.626;11.410;2023-01-23T12:52:14;3.00;99.90
5138;DHT22;53959;53.626;11.410;2023-01-23T12:54:42;3.10;99.90
5138;DHT22;53959;53.626;11.410;2023-01-23T12:57:11;3.10;99.90
5138;DHT22;53959;53.626;11.410;2023-01-23T13:02:17;3.10;99.90
5138;DHT22;53959;53.626;11.410;2023-01-23T13:07:52;2.90;99.90
5138;DHT22;53959;53.626;11.410;2023-01-23T13:10:35;3.10;99.90
5138;DHT22;53959;53.626;11.410;2023-01-23T13:13:23;3.00;99.90
5138;DHT22;53959;53.626;11.410;2023-01-23T13:16:03;3.10;99.90
5138;DHT22;53959;53.626;11.410;2023-01-23T13:18:28;3.00;99.90
5138;DHT22;53959;53.626;11.410;2023-01-23T13:20:58;2.90;99.90
5138;DHT22;53959;53.626;11.410;2023-01-23T13:23:43;2.90;99.90
5138;DHT22;53959;53.626;11.410;2023-01-23T13:28:45;3.00;99.90
5138;DHT22;53959;53.626;11.410;2023-01-23T13:31:40;3.00;99.90
5138;DHT22;53959;53.626;11.410;2023-01-23T13:36:41;3.00;99.90
5138;DHT22;53959;53.626;11.410;2023-01-23T13:41:47;3.00;99.90
5138;DHT22;53959;53.626;11.410;2023-01-23T13:49:38;3.00;99.90
5138;DHT22;53959;53.626;11.410;2023-01-23T13:52:24;3.00;99.90
5138;DHT22;53959;53.626;11.410;2023-01-23T13:55:19;3.00;99.90
5138;DHT22;53959;53.626;11.410;2023-01-23T13:58:05;3.10;99.90
5138;DHT22;53959;53.626;11.410;2023-01-23T14:00:34;3.10;99.90
5138;DHT22;53959;53.626;11.410;2023-01-23T14:03:30;3.10;99.90
5138;DHT22;53959;53.626;11.410;2023-01-23T14:06:14;3.00;99.90
5138;DHT22;53959;53.626;11.410;2023-01-23T14:08:51;3.00;99.90
5138;DHT22;53959;53.626;11.410;2023-01-23T14:11:19;3.00;99.90
5138;DHT22;53959;53.626;11.410;2023-01-23T14:13:53;3.00;99.90
5138;DHT22;53959;53.626;11.410;2023-01-23T14:16:43;3.00;99.90
5138;DHT22;53959;53.626;11.410;2023-01-23T14:19:30;3.00;99.90
5138;DHT22;53959;53.626;11.410;2023-01-23T14:21:58;2.90;99.90
5138;DHT22;53959;53.626;11.410;2023-01-23T14:24:42;3.10;99.90
5138;DHT22;53959;53.626;11.410;2023-01-23T14:27:16;3.10;99.90
5138;DHT22;53959;53.626;11.410;2023-01-23T14:30:02;3.10;99.90
5138;DHT22;53959;53.626;11.410;2023-01-23T14:32:30;2.90;99.90
5138;DHT22;53959;53.626;11.410;2023-01-23T14:34:57;2.90;99.90
5138;DHT22;53959;53.626;11.410;2023-01-23T14:37:23;3.00;99.90
5138;DHT22;53959;53.626;11.410;2023-01-23T14:39:49;2.90;99.90
5138;DHT22;53959;53.626;11.410;2023-01-23T14:42:27;2.90;99.90
5138;DHT22;53959;53.626;11.410;2023-01-23T14:44:55;2.90;99.90
5138;DHT22;53959;53.626;11.410;2023-01-23T14:47:32;2.90;99.90
5138;DHT22;53959;53.626;11.410;2023-01-23T14:50:02;2.80;99.90
5138;DHT22;53959;53.626;11.410;2023-01-23T14:52:29;2.80;99.90
5138;DHT22;53959;53.626;11.410;2023-01-23T14:54:56;2.80;99.90
5138;DHT22;53959;53.626;11.410;2023-01-23T14:57:23;2.80;99.90
5138;DHT22;53959;53.626;11.410;2023-01-23T14:59:55;2.90;99.90
5138;DHT22;53959;53.626;11.410;2023-01-23T15:05:18;2.90;99.90
5138;DHT22;53959;53.626;11.410;2023-01-23T15:10:28;2.90;99.90
5138;DHT22;53959;53.626;11.410;2023-01-23T15:12:57;2.90;99.90
5138;DHT22;53959;53.626;11.410;2023-01-23T15:15:25;2.80;99.90
5138;DHT22;53959;53.626;11.410;2023-01-23T15:17:52;2.90;99.90
5138;DHT22;53959;53.626;11.410;2023-01-23T15:20:34;2.80;99.90
5138;DHT22;53959;53.626;11.410;2023-01-23T15:23:31;2.90;99.90
5138;DHT22;53959;53.626;11.410;2023-01-23T15:29:16;2.90;99.90
5138;DHT22;53959;53.626;11.410;2023-01-23T15:31:46;2.90;99.90
5138;DHT22;53959;53.626;11.410;2023-01-23T15:36:56;2.90;99.90
5138;DHT22;53959;53.626;11.410;2023-01-23T15:41:59;2.80;99.90
5138;DHT22;53959;53.626;11.410;2023-01-23T15:44:28;2.80;99.90
5138;DHT22;53959;53.626;11.410;2023-01-23T15:46:54;2.70;99.90
5138;DHT22;53959;53.626;11.410;2023-01-23T15:49:20;2.70;99.90
5138;DHT22;53959;53.626;11.410;2023-01-23T15:51:46;2.70;99.90
5138;DHT22;53959;53.626;11.410;2023-01-23T15:54:20;2.70;99.90
5138;DHT22;53959;53.626;11.410;2023-01-23T15:56:46;2.80;99.90
5138;DHT22;53959;53.626;11.410;2023-01-23T15:59:16;2.80;99.90
5138;DHT22;53959;53.626;11.410;2023-01-23T16:01:42;2.70;99.90
5138;DHT22;53959;53.626;11.410;2023-01-23T16:04:08;2.70;99.90
5138;DHT22;53959;53.626;11.410;2023-01-23T16:06:34;2.70;99.90
5138;DHT22;53959;53.626;11.410;2023-01-23T16:08:59;2.80;99.90
5138;DHT22;53959;53.626;11.410;2023-01-23T16:11:27;2.80;99.90
5138;DHT22;53959;53.626;11.410;2023-01-23T16:13:55;2.80;99.90
5138;DHT22;53959;53.626;11.410;2023-01-23T16:16:20;2.60;99.90
5138;DHT22;53959;53.626;11.410;2023-01-23T16:18:46;2.70;99.90
5138;DHT22;53959;53.626;11.410;2023-01-23T16:21:20;2.70;99.90
5138;DHT22;53959;53.626;11.410;2023-01-23T16:23:49;2.70;99.90
5138;DHT22;53959;53.626;11.410;2023-01-23T16:26:20;2.70;99.90
5138;DHT22;53959;53.626;11.410;2023-01-23T16:28:46;2.70;99.90
5138;DHT22;53959;53.626;11.410;2023-01-23T16:31:12;2.60;99.90
5138;DHT22;53959;53.626;11.410;2023-01-23T16:33:38;2.70;99.90
5138;DHT22;53959;53.626;11.410;2023-01-23T16:36:04;2.80;99.90
5138;DHT22;53959;53.626;11.410;2023-01-23T16:38:30;2.70;99.90
5138;DHT22;53959;53.626;11.410;2023-01-23T16:40:57;2.70;99.90
5138;DHT22;53959;53.626;11.410;2023-01-23T16:43:24;2.80;99.90
5138;DHT22;53959;53.626;11.410;2023-01-23T16:45:50;2.80;99.90
5138;DHT22;53959;53.626;11.410;2023-01-23T16:48:17;2.70;99.90
5138;DHT22;53959;53.626;11.410;2023-01-23T16:50:46;2.70;99.90
5138;DHT22;53959;53.626;11.410;2023-01-23T16:53:24;2.70;99.90
5138;DHT22;53959;53.626;11.410;2023-01-23T16:55:50;2.70;99.90
5138;DHT22;53959;53.626;11.410;2023-01-23T16:58:20;2.70;99.90
5138;DHT22;53959;53.626;11.410;2023-01-23T17:00:47;2.60;99.90
5138;DHT22;53959;53.626;11.410;2023-01-23T17:03:20;2.50;99.90
5138;DHT22;53959;53.626;11.410;2023-01-23T17:05:46;2.50;99.90
5138;DHT22;53959;53.626;11.410;2023-01-23T17:08:20;2.50;99.90
5138;DHT22;53959;53.626;11.410;2023-01-23T17:10:50;2.50;99.90
5138;DHT22;53959;53.626;11.410;2023-01-23T17:13:19;2.50;99.90
5138;DHT22;53959;53.626;11.410;2023-01-23T17:15:46;2.50;99.90
5138;DHT22;53959;53.626;11.410;2023-01-23T17:18:25;2.50;99.90
5138;DHT22;53959;53.626;11.410;2023-01-23T17:20:51;2.40;99.90
5138;DHT22;53959;53.626;11.410;2023-01-23T17:23:21;2.50;99.90
5138;DHT22;53959;53.626;11.410;2023-01-23T17:25:47;2.50;99.90
5138;DHT22;53959;53.626;11.410;2023-01-23T17:28:14;2.60;99.90
5138;DHT22;53959;53.626;11.410;2023-01-23T17:30:41;2.50;99.90
5138;DHT22;53959;53.626;11.410;2023-01-23T17:33:19;2.50;99.90
5138;DHT22;53959;53.626;11.410;2023-01-23T17:35:46;2.40;99.90
5138;DHT22;53959;53.626;11.410;2023-01-23T17:38:30;2.50;99.90
5138;DHT22;53959;53.626;11.410;2023-01-23T17:40:56;2.60;99.90